createdAt,value
2017-10-29T00:00:10.157Z,0
2017-10-29T00:01:18.699Z,0
2017-10-29T00:02:27.273Z,0
2017-10-29T00:03:36.484Z,0
2017-10-29T00:04:45.371Z,0
2017-10-29T00:05:54.585Z,0
2017-10-29T00:07:03.126Z,0
2017-10-29T00:08:12.005Z,0
2017-10-29T00:09:21.561Z,0
2017-10-29T00:10:30.441Z,0
2017-10-29T00:11:38.989Z,0
2017-10-29T00:12:47.865Z,0
2017-10-29T00:13:56.406Z,0
2017-10-29T00:15:05.283Z,0
2017-10-29T00:16:14.210Z,0
2017-10-29T00:17:22.751Z,0
2017-10-29T00:18:31.632Z,0
2017-10-29T00:19:40.508Z,0
2017-10-29T00:20:49.393Z,0
2017-10-29T00:21:58.948Z,0
2017-10-29T00:23:08.539Z,0
2017-10-29T00:24:17.423Z,0
2017-10-29T00:25:25.966Z,0
2017-10-29T00:26:35.164Z,0
2017-10-29T00:27:44.040Z,0
2017-10-29T00:28:52.917Z,0
2017-10-29T00:30:01.458Z,0
2017-10-29T00:31:10.677Z,0
2017-10-29T00:32:19.557Z,0
2017-10-29T00:33:28.768Z,0
2017-10-29T00:34:37.646Z,0
2017-10-29T00:35:47.216Z,0
2017-10-29T00:36:56.126Z,0
2017-10-29T00:38:04.662Z,0
2017-10-29T00:39:13.542Z,0
2017-10-29T00:40:22.422Z,0
2017-10-29T00:41:31.633Z,0
2017-10-29T00:42:40.508Z,0
2017-10-29T00:43:49.051Z,0
2017-10-29T00:44:57.594Z,0
2017-10-29T00:46:06.469Z,0
2017-10-29T00:47:15.007Z,0
2017-10-29T00:48:23.886Z,0
2017-10-29T00:49:32.426Z,0
2017-10-29T00:50:41.306Z,0
2017-10-29T00:51:49.841Z,0
2017-10-29T00:52:58.388Z,0
2017-10-29T00:54:07.599Z,0
2017-10-29T00:55:16.480Z,0
2017-10-29T00:56:25.026Z,0
2017-10-29T00:57:33.563Z,0
2017-10-29T00:58:42.442Z,0
2017-10-29T00:59:51.331Z,0
2017-10-29T01:01:00.545Z,0
2017-10-29T01:02:09.090Z,0
2017-10-29T01:03:18.643Z,0
2017-10-29T01:04:27.531Z,0
2017-10-29T01:05:36.751Z,0
2017-10-29T01:06:45.293Z,0
2017-10-29T01:07:53.840Z,0
2017-10-29T01:09:02.381Z,0
2017-10-29T01:10:10.925Z,0
2017-10-29T01:11:19.811Z,0
2017-10-29T01:12:28.352Z,0
2017-10-29T01:13:37.278Z,0
2017-10-29T01:14:47.910Z,0
2017-10-29T01:15:56.462Z,0
2017-10-29T01:17:06.024Z,0
2017-10-29T01:18:14.901Z,0
2017-10-29T01:19:24.451Z,0
2017-10-29T01:20:33.328Z,0
2017-10-29T01:21:41.866Z,0
2017-10-29T01:22:50.408Z,0
2017-10-29T01:23:59.622Z,0
2017-10-29T01:25:08.498Z,0
2017-10-29T01:26:17.376Z,0
2017-10-29T01:27:26.927Z,0
2017-10-29T01:28:36.144Z,0
2017-10-29T01:29:44.683Z,0
2017-10-29T01:30:53.226Z,0
2017-10-29T01:32:02.100Z,0
2017-10-29T01:33:10.987Z,0
2017-10-29T01:34:20.201Z,0
2017-10-29T01:35:29.078Z,0
2017-10-29T01:36:37.618Z,0
2017-10-29T01:37:46.161Z,0
2017-10-29T01:38:56.056Z,0
2017-10-29T01:40:05.276Z,0
2017-10-29T01:41:14.486Z,0
2017-10-29T01:42:23.029Z,0
2017-10-29T01:43:31.567Z,0
2017-10-29T01:44:40.107Z,0
2017-10-29T01:45:48.987Z,0
2017-10-29T01:46:57.534Z,0
2017-10-29T01:48:06.741Z,0
2017-10-29T01:49:15.619Z,0
2017-10-29T01:50:24.162Z,0
2017-10-29T01:51:33.377Z,0
2017-10-29T01:52:41.923Z,0
2017-10-29T01:53:50.900Z,0
2017-10-29T01:55:00.121Z,0
2017-10-29T01:56:08.996Z,0
2017-10-29T01:57:17.539Z,0
2017-10-29T01:58:26.082Z,0
2017-10-29T01:59:34.618Z,0
2017-10-29T02:00:43.166Z,0
2017-10-29T02:01:53.052Z,0
2017-10-29T02:03:01.928Z,0
2017-10-29T02:04:11.153Z,0
2017-10-29T02:05:20.364Z,0
2017-10-29T02:06:29.583Z,0
2017-10-29T02:07:38.127Z,0
2017-10-29T02:08:47.004Z,0
2017-10-29T02:09:56.217Z,0
2017-10-29T02:11:05.100Z,0
2017-10-29T02:12:13.644Z,0
2017-10-29T02:13:22.859Z,0
2017-10-29T02:14:31.398Z,0
2017-10-29T02:15:39.938Z,0
2017-10-29T02:16:49.155Z,0
2017-10-29T02:17:58.382Z,0
2017-10-29T02:19:06.922Z,0
2017-10-29T02:20:15.818Z,0
2017-10-29T02:21:25.035Z,0
2017-10-29T02:22:33.581Z,0
2017-10-29T02:23:42.124Z,0
2017-10-29T02:24:50.997Z,0
2017-10-29T02:25:59.540Z,0
2017-10-29T02:27:08.752Z,0
2017-10-29T02:28:17.295Z,0
2017-10-29T02:29:26.849Z,0
2017-10-29T02:30:36.066Z,0
2017-10-29T02:31:44.944Z,0
2017-10-29T02:32:53.486Z,0
2017-10-29T02:34:02.729Z,0
2017-10-29T02:35:11.269Z,0
2017-10-29T02:36:20.153Z,0
2017-10-29T02:37:28.694Z,0
2017-10-29T02:38:37.575Z,0
2017-10-29T02:39:46.118Z,0
2017-10-29T02:40:55.339Z,0
2017-10-29T02:42:04.218Z,0
2017-10-29T02:43:12.760Z,0
2017-10-29T02:44:21.638Z,0
2017-10-29T02:45:30.183Z,0
2017-10-29T02:46:38.723Z,0
2017-10-29T02:47:47.607Z,0
2017-10-29T02:48:56.819Z,0
2017-10-29T02:50:05.708Z,0
2017-10-29T02:51:14.935Z,0
2017-10-29T02:52:24.172Z,0
2017-10-29T02:53:33.057Z,0
2017-10-29T02:54:41.599Z,0
2017-10-29T02:55:50.824Z,0
2017-10-29T02:56:59.367Z,0
2017-10-29T02:58:08.922Z,0
2017-10-29T02:59:17.463Z,0
2017-10-29T03:00:26.672Z,0
2017-10-29T03:01:35.216Z,0
2017-10-29T03:02:43.759Z,0
2017-10-29T03:03:52.305Z,0
2017-10-29T03:05:00.850Z,0
2017-10-29T03:06:09.395Z,0
2017-10-29T03:07:17.935Z,0
2017-10-29T03:08:26.476Z,0
2017-10-29T03:09:35.352Z,0
2017-10-29T03:10:44.569Z,0
2017-10-29T03:11:53.108Z,0
2017-10-29T03:13:01.649Z,0
2017-10-29T03:14:10.525Z,0
2017-10-29T03:15:19.064Z,0
2017-10-29T03:16:27.606Z,0
2017-10-29T03:17:36.151Z,0
2017-10-29T03:18:45.030Z,0
2017-10-29T03:19:53.574Z,0
2017-10-29T03:21:02.115Z,0
2017-10-29T03:22:10.994Z,0
2017-10-29T03:23:19.871Z,0
2017-10-29T03:24:28.410Z,0
2017-10-29T03:25:37.286Z,0
2017-10-29T03:26:46.500Z,0
2017-10-29T03:27:55.379Z,0
2017-10-29T03:29:03.919Z,0
2017-10-29T03:30:13.166Z,0
2017-10-29T03:31:22.044Z,0
2017-10-29T03:32:31.258Z,0
2017-10-29T03:33:39.799Z,0
2017-10-29T03:34:48.674Z,0
2017-10-29T03:35:57.544Z,0
2017-10-29T03:37:06.758Z,0
2017-10-29T03:38:15.301Z,0
2017-10-29T03:39:23.842Z,0
2017-10-29T03:40:32.380Z,0
2017-10-29T03:41:41.261Z,0
2017-10-29T03:42:50.140Z,0
2017-10-29T03:43:58.681Z,0
2017-10-29T03:45:07.559Z,0
2017-10-29T03:46:16.444Z,0
2017-10-29T03:47:25.324Z,0
2017-10-29T03:48:33.862Z,0
2017-10-29T03:49:43.084Z,0
2017-10-29T03:50:51.958Z,0
2017-10-29T03:52:00.501Z,0
2017-10-29T03:53:09.718Z,0
2017-10-29T03:54:18.605Z,0
2017-10-29T03:55:27.144Z,0
2017-10-29T03:56:36.361Z,0
2017-10-29T03:57:45.920Z,0
2017-10-29T03:58:55.134Z,0
2017-10-29T04:00:04.340Z,0
2017-10-29T04:01:13.561Z,0
2017-10-29T04:02:23.109Z,0
2017-10-29T04:03:31.653Z,0
2017-10-29T04:04:40.864Z,0
2017-10-29T04:05:49.743Z,0
2017-10-29T04:06:58.286Z,0
2017-10-29T04:08:06.825Z,0
2017-10-29T04:09:16.038Z,0
2017-10-29T04:10:24.578Z,0
2017-10-29T04:11:33.117Z,0
2017-10-29T04:12:41.657Z,0
2017-10-29T04:13:50.532Z,0
2017-10-29T04:14:59.745Z,0
2017-10-29T04:16:08.624Z,0
2017-10-29T04:17:17.166Z,0
2017-10-29T04:18:25.706Z,0
2017-10-29T04:19:34.581Z,0
2017-10-29T04:20:43.122Z,0
2017-10-29T04:21:51.670Z,0
2017-10-29T04:23:00.542Z,0
2017-10-29T04:24:09.421Z,0
2017-10-29T04:25:18.639Z,0
2017-10-29T04:26:27.849Z,0
2017-10-29T04:27:36.394Z,0
2017-10-29T04:28:45.267Z,0
2017-10-29T04:29:54.480Z,0
2017-10-29T04:31:03.357Z,0
2017-10-29T04:32:12.233Z,0
2017-10-29T04:33:21.113Z,0
2017-10-29T04:34:29.657Z,0
2017-10-29T04:35:38.196Z,0
2017-10-29T04:36:46.787Z,0
2017-10-29T04:37:55.666Z,0
2017-10-29T04:39:04.209Z,0
2017-10-29T04:40:13.425Z,0
2017-10-29T04:41:22.300Z,0
2017-10-29T04:42:31.189Z,0
2017-10-29T04:43:39.731Z,0
2017-10-29T04:44:48.607Z,0
2017-10-29T04:45:57.148Z,0
2017-10-29T04:47:05.689Z,0
2017-10-29T04:48:14.566Z,0
2017-10-29T04:49:23.107Z,0
2017-10-29T04:50:31.644Z,0
2017-10-29T04:51:40.185Z,0
2017-10-29T04:52:49.063Z,0
2017-10-29T04:53:58.278Z,0
2017-10-29T04:55:07.158Z,0
2017-10-29T04:56:15.694Z,0
2017-10-29T04:57:24.239Z,0
2017-10-29T04:58:32.780Z,0
2017-10-29T04:59:41.321Z,0
2017-10-29T05:00:50.202Z,0
2017-10-29T05:01:58.747Z,0
2017-10-29T05:03:07.631Z,0
2017-10-29T05:04:16.166Z,0
2017-10-29T05:05:24.707Z,0
2017-10-29T05:06:33.919Z,0
2017-10-29T05:07:42.795Z,0
2017-10-29T05:08:51.334Z,0
2017-10-29T05:09:59.875Z,0
2017-10-29T05:11:09.091Z,0
2017-10-29T05:12:17.631Z,0
2017-10-29T05:13:26.172Z,0
2017-10-29T05:14:34.712Z,0
2017-10-29T05:15:43.251Z,0
2017-10-29T05:16:52.462Z,0
2017-10-29T05:18:01.003Z,0
2017-10-29T05:19:09.879Z,0
2017-10-29T05:20:18.751Z,0
2017-10-29T05:21:27.628Z,0
2017-10-29T05:22:36.524Z,0
2017-10-29T05:23:45.741Z,0
2017-10-29T05:24:54.281Z,0
2017-10-29T05:26:02.824Z,0
2017-10-29T05:27:11.364Z,0
2017-10-29T05:28:20.572Z,0
2017-10-29T05:29:29.450Z,0
2017-10-29T05:30:37.991Z,0
2017-10-29T05:31:46.530Z,0
2017-10-29T05:32:55.404Z,0
2017-10-29T05:34:04.619Z,0
2017-10-29T05:35:13.838Z,0
2017-10-29T05:36:22.379Z,0
2017-10-29T05:37:31.257Z,0
2017-10-29T05:38:40.136Z,0
2017-10-29T05:39:48.676Z,0
2017-10-29T05:40:57.556Z,0
2017-10-29T05:42:06.093Z,0
2017-10-29T05:43:14.633Z,0
2017-10-29T05:44:23.175Z,0
2017-10-29T05:45:32.383Z,0
2017-10-29T05:46:41.257Z,0
2017-10-29T05:47:49.797Z,0
2017-10-29T05:48:58.673Z,0
2017-10-29T05:50:07.211Z,0
2017-10-29T05:51:16.085Z,0
2017-10-29T05:52:25.303Z,0
2017-10-29T05:53:34.180Z,0
2017-10-29T05:54:43.056Z,0
2017-10-29T05:55:51.933Z,0
2017-10-29T05:57:00.809Z,0
2017-10-29T05:58:10.019Z,0
2017-10-29T05:59:19.262Z,0
2017-10-29T06:00:28.115Z,0
2017-10-29T06:01:36.992Z,0
2017-10-29T06:02:45.867Z,0
2017-10-29T06:03:54.745Z,0
2017-10-29T06:05:03.624Z,0
2017-10-29T06:06:12.497Z,0
2017-10-29T06:07:21.037Z,0
2017-10-29T06:08:29.912Z,0
2017-10-29T06:09:38.787Z,0
2017-10-29T06:10:47.999Z,0
2017-10-29T06:11:56.882Z,0
2017-10-29T06:13:05.760Z,0
2017-10-29T06:14:14.635Z,0
2017-10-29T06:15:23.852Z,0
2017-10-29T06:16:32.733Z,0
2017-10-29T06:17:41.612Z,0
2017-10-29T06:18:50.157Z,5
2017-10-29T06:19:59.042Z,5
2017-10-29T06:21:07.915Z,5
2017-10-29T06:22:16.455Z,5
2017-10-29T06:23:25.332Z,5
2017-10-29T06:24:33.871Z,5
2017-10-29T06:25:42.755Z,5
2017-10-29T06:26:51.295Z,10
2017-10-29T06:27:59.838Z,10
2017-10-29T06:29:08.376Z,10
2017-10-29T06:30:17.255Z,10
2017-10-29T06:31:25.793Z,10
2017-10-29T06:32:34.665Z,10
2017-10-29T06:33:43.202Z,10
2017-10-29T06:34:51.741Z,15
2017-10-29T06:36:00.284Z,15
2017-10-29T06:37:09.497Z,15
2017-10-29T06:38:18.729Z,15
2017-10-29T06:39:27.266Z,15
2017-10-29T06:40:36.144Z,20
2017-10-29T06:41:45.693Z,20
2017-10-29T06:42:54.232Z,20
2017-10-29T06:44:03.116Z,20
2017-10-29T06:45:12.338Z,20
2017-10-29T06:46:20.882Z,20
2017-10-29T06:47:29.426Z,20
2017-10-29T06:48:37.962Z,20
2017-10-29T06:49:46.502Z,20
2017-10-29T06:50:55.377Z,20
2017-10-29T06:52:03.914Z,25
2017-10-29T06:53:12.797Z,30
2017-10-29T06:54:22.008Z,30
2017-10-29T06:55:31.236Z,35
2017-10-29T06:56:39.778Z,35
2017-10-29T06:57:48.317Z,40
2017-10-29T06:58:56.859Z,40
2017-10-29T07:00:06.073Z,45
2017-10-29T07:01:14.948Z,45
2017-10-29T07:02:24.495Z,45
2017-10-29T07:03:33.367Z,40
2017-10-29T07:04:42.004Z,45
2017-10-29T07:05:51.218Z,40
2017-10-29T07:07:00.094Z,45
2017-10-29T07:08:08.634Z,45
2017-10-29T07:09:17.840Z,50
2017-10-29T07:10:26.376Z,60
2017-10-29T07:11:34.915Z,60
2017-10-29T07:12:43.459Z,60
2017-10-29T07:13:52.000Z,55
2017-10-29T07:15:00.880Z,50
2017-10-29T07:16:10.087Z,60
2017-10-29T07:17:18.624Z,65
2017-10-29T07:18:27.841Z,65
2017-10-29T07:19:36.715Z,55
2017-10-29T07:20:45.938Z,65
2017-10-29T07:21:54.480Z,60
2017-10-29T07:23:03.353Z,60
2017-10-29T07:24:12.228Z,65
2017-10-29T07:25:21.442Z,70
2017-10-29T07:26:29.984Z,75
2017-10-29T07:27:39.195Z,75
2017-10-29T07:28:47.737Z,85
2017-10-29T07:29:56.614Z,105
2017-10-29T07:31:05.158Z,85
2017-10-29T07:32:14.043Z,70
2017-10-29T07:33:22.579Z,70
2017-10-29T07:34:31.119Z,70
2017-10-29T07:35:39.997Z,70
2017-10-29T07:36:48.563Z,75
2017-10-29T07:37:57.436Z,80
2017-10-29T07:39:06.650Z,85
2017-10-29T07:40:15.289Z,85
2017-10-29T07:41:24.498Z,80
2017-10-29T07:42:33.041Z,80
2017-10-29T07:43:41.933Z,75
2017-10-29T07:44:50.477Z,80
2017-10-29T07:45:59.019Z,80
2017-10-29T07:47:07.896Z,80
2017-10-29T07:48:16.435Z,85
2017-10-29T07:49:25.312Z,80
2017-10-29T07:50:33.850Z,80
2017-10-29T07:51:42.392Z,80
2017-10-29T07:52:51.280Z,80
2017-10-29T07:54:00.151Z,80
2017-10-29T07:55:08.690Z,85
2017-10-29T07:56:17.232Z,85
2017-10-29T07:57:26.104Z,85
2017-10-29T07:58:34.643Z,85
2017-10-29T07:59:43.520Z,90
2017-10-29T08:00:52.398Z,95
2017-10-29T08:02:01.611Z,100
2017-10-29T08:03:10.152Z,100
2017-10-29T08:04:19.364Z,95
2017-10-29T08:05:28.241Z,110
2017-10-29T08:06:36.780Z,110
2017-10-29T08:07:45.659Z,110
2017-10-29T08:08:54.204Z,105
2017-10-29T08:10:03.762Z,100
2017-10-29T08:11:12.999Z,110
2017-10-29T08:12:21.877Z,115
2017-10-29T08:13:30.753Z,125
2017-10-29T08:14:39.295Z,115
2017-10-29T08:15:48.506Z,115
2017-10-29T08:16:57.386Z,100
2017-10-29T08:18:06.267Z,95
2017-10-29T08:19:15.150Z,95
2017-10-29T08:20:24.362Z,95
2017-10-29T08:21:33.235Z,95
2017-10-29T08:22:42.108Z,95
2017-10-29T08:23:50.988Z,95
2017-10-29T08:24:59.863Z,100
2017-10-29T08:26:08.403Z,100
2017-10-29T08:27:17.283Z,100
2017-10-29T08:28:26.160Z,110
2017-10-29T08:29:34.700Z,130
2017-10-29T08:30:43.242Z,120
2017-10-29T08:31:52.114Z,130
2017-10-29T08:33:01.336Z,140
2017-10-29T08:34:09.872Z,135
2017-10-29T08:35:18.749Z,135
2017-10-29T08:36:27.678Z,120
2017-10-29T08:37:37.603Z,130
2017-10-29T08:38:46.253Z,130
2017-10-29T08:39:55.553Z,125
2017-10-29T08:41:04.768Z,115
2017-10-29T08:42:13.656Z,100
2017-10-29T08:43:22.888Z,105
2017-10-29T08:44:32.134Z,105
2017-10-29T08:45:40.673Z,110
2017-10-29T08:46:49.215Z,100
2017-10-29T08:47:58.099Z,125
2017-10-29T08:49:06.638Z,130
2017-10-29T08:50:15.513Z,120
2017-10-29T08:51:25.065Z,110
2017-10-29T08:52:34.731Z,110
2017-10-29T08:53:43.618Z,105
2017-10-29T08:54:52.498Z,105
2017-10-29T08:56:01.373Z,105
2017-10-29T08:57:10.251Z,110
2017-10-29T08:58:19.243Z,120
2017-10-29T08:59:28.120Z,165
2017-10-29T09:00:37.000Z,165
2017-10-29T09:01:46.210Z,180
2017-10-29T09:02:55.419Z,160
2017-10-29T09:04:04.297Z,145
2017-10-29T09:05:13.174Z,130
2017-10-29T09:06:22.058Z,115
2017-10-29T09:07:30.933Z,115
2017-10-29T09:08:39.470Z,115
2017-10-29T09:09:48.009Z,110
2017-10-29T09:10:57.222Z,110
2017-10-29T09:12:06.092Z,110
2017-10-29T09:13:14.969Z,105
2017-10-29T09:14:23.511Z,100
2017-10-29T09:15:32.050Z,105
2017-10-29T09:16:40.590Z,100
2017-10-29T09:17:49.131Z,105
2017-10-29T09:18:58.009Z,110
2017-10-29T09:20:06.886Z,125
2017-10-29T09:21:15.759Z,155
2017-10-29T09:22:24.298Z,190
2017-10-29T09:23:33.034Z,230
2017-10-29T09:24:41.576Z,185
2017-10-29T09:25:50.137Z,190
2017-10-29T09:26:59.000Z,165
2017-10-29T09:28:08.565Z,140
2017-10-29T09:29:18.106Z,120
2017-10-29T09:30:26.991Z,120
2017-10-29T09:31:35.555Z,170
2017-10-29T09:32:44.435Z,115
2017-10-29T09:33:52.980Z,115
2017-10-29T09:35:01.861Z,160
2017-10-29T09:36:10.744Z,145
2017-10-29T09:37:19.618Z,185
2017-10-29T09:38:28.160Z,170
2017-10-29T09:39:37.373Z,200
2017-10-29T09:40:46.252Z,315
2017-10-29T09:41:55.503Z,245
2017-10-29T09:43:04.074Z,140
2017-10-29T09:44:12.971Z,120
2017-10-29T09:45:21.854Z,150
2017-10-29T09:46:30.737Z,140
2017-10-29T09:47:39.615Z,155
2017-10-29T09:48:48.165Z,165
2017-10-29T09:49:57.041Z,195
2017-10-29T09:51:05.918Z,180
2017-10-29T09:52:15.133Z,190
2017-10-29T09:53:23.674Z,160
2017-10-29T09:54:32.215Z,120
2017-10-29T09:55:41.104Z,105
2017-10-29T09:56:49.645Z,105
2017-10-29T09:57:58.181Z,105
2017-10-29T09:59:06.725Z,105
2017-10-29T10:00:15.264Z,105
2017-10-29T10:01:24.143Z,110
2017-10-29T10:02:33.031Z,120
2017-10-29T10:03:41.905Z,120
2017-10-29T10:04:50.449Z,120
2017-10-29T10:05:59.663Z,120
2017-10-29T10:07:08.542Z,120
2017-10-29T10:08:17.422Z,120
2017-10-29T10:09:26.628Z,120
2017-10-29T10:10:35.509Z,120
2017-10-29T10:11:44.047Z,125
2017-10-29T10:12:52.586Z,125
2017-10-29T10:14:01.123Z,125
2017-10-29T10:15:09.668Z,135
2017-10-29T10:16:18.872Z,160
2017-10-29T10:17:27.411Z,175
2017-10-29T10:18:37.125Z,185
2017-10-29T10:19:46.337Z,240
2017-10-29T10:20:54.908Z,230
2017-10-29T10:22:03.420Z,205
2017-10-29T10:23:12.637Z,180
2017-10-29T10:24:21.517Z,170
2017-10-29T10:25:30.406Z,150
2017-10-29T10:26:39.281Z,140
2017-10-29T10:27:47.822Z,130
2017-10-29T10:28:56.700Z,135
2017-10-29T10:30:05.242Z,150
2017-10-29T10:31:14.116Z,130
2017-10-29T10:32:22.659Z,120
2017-10-29T10:33:31.543Z,160
2017-10-29T10:34:40.435Z,180
2017-10-29T10:35:48.974Z,200
2017-10-29T10:36:57.518Z,180
2017-10-29T10:38:06.745Z,130
2017-10-29T10:39:15.644Z,110
2017-10-29T10:40:24.854Z,110
2017-10-29T10:41:33.732Z,110
2017-10-29T10:42:42.609Z,105
2017-10-29T10:43:51.485Z,110
2017-10-29T10:45:00.027Z,110
2017-10-29T10:46:08.910Z,120
2017-10-29T10:47:17.800Z,120
2017-10-29T10:48:26.331Z,120
2017-10-29T10:49:34.873Z,120
2017-10-29T10:50:44.104Z,125
2017-10-29T10:51:52.632Z,125
2017-10-29T10:53:01.504Z,125
2017-10-29T10:54:10.046Z,120
2017-10-29T10:55:19.598Z,125
2017-10-29T10:56:28.139Z,125
2017-10-29T10:57:37.364Z,130
2017-10-29T10:58:45.899Z,135
2017-10-29T10:59:54.778Z,155
2017-10-29T11:01:03.994Z,200
2017-10-29T11:02:13.207Z,190
2017-10-29T11:03:22.435Z,220
2017-10-29T11:04:31.314Z,240
2017-10-29T11:05:40.193Z,265
2017-10-29T11:06:48.734Z,220
2017-10-29T11:07:57.948Z,195
2017-10-29T11:09:06.822Z,215
2017-10-29T11:10:15.363Z,195
2017-10-29T11:11:24.244Z,160
2017-10-29T11:12:33.120Z,165
2017-10-29T11:13:41.996Z,165
2017-10-29T11:14:50.538Z,130
2017-10-29T11:15:59.415Z,120
2017-10-29T11:17:08.628Z,120
2017-10-29T11:18:17.171Z,115
2017-10-29T11:19:25.714Z,115
2017-10-29T11:20:34.252Z,120
2017-10-29T11:21:42.793Z,115
2017-10-29T11:22:51.334Z,125
2017-10-29T11:24:00.208Z,115
2017-10-29T11:25:09.084Z,125
2017-10-29T11:26:17.626Z,125
2017-10-29T11:27:26.167Z,135
2017-10-29T11:28:34.706Z,160
2017-10-29T11:29:43.584Z,205
2017-10-29T11:30:53.464Z,250
2017-10-29T11:32:02.342Z,225
2017-10-29T11:33:10.886Z,200
2017-10-29T11:34:19.432Z,200
2017-10-29T11:35:28.644Z,250
2017-10-29T11:36:37.196Z,250
2017-10-29T11:37:46.409Z,255
2017-10-29T11:38:54.953Z,195
2017-10-29T11:40:03.497Z,165
2017-10-29T11:41:12.040Z,175
2017-10-29T11:42:20.917Z,165
2017-10-29T11:43:29.792Z,165
2017-10-29T11:44:38.671Z,160
2017-10-29T11:45:47.550Z,145
2017-10-29T11:46:56.092Z,130
2017-10-29T11:48:04.631Z,120
2017-10-29T11:49:13.172Z,120
2017-10-29T11:50:21.712Z,115
2017-10-29T11:51:30.589Z,115
2017-10-29T11:52:39.126Z,115
2017-10-29T11:53:48.000Z,110
2017-10-29T11:54:56.879Z,110
2017-10-29T11:56:05.418Z,115
2017-10-29T11:57:13.958Z,125
2017-10-29T11:58:23.504Z,130
2017-10-29T11:59:32.382Z,130
2017-10-29T12:00:41.253Z,130
2017-10-29T12:01:50.470Z,130
2017-10-29T12:02:59.349Z,130
2017-10-29T12:04:07.889Z,130
2017-10-29T12:05:17.439Z,130
2017-10-29T12:06:26.651Z,130
2017-10-29T12:07:35.196Z,130
2017-10-29T12:08:43.736Z,130
2017-10-29T12:09:53.165Z,165
2017-10-29T12:11:01.698Z,180
2017-10-29T12:12:10.913Z,180
2017-10-29T12:13:19.791Z,230
2017-10-29T12:14:28.668Z,235
2017-10-29T12:15:37.208Z,235
2017-10-29T12:16:46.419Z,230
2017-10-29T12:17:55.633Z,240
2017-10-29T12:19:04.844Z,265
2017-10-29T12:20:13.384Z,215
2017-10-29T12:21:21.922Z,225
2017-10-29T12:22:30.462Z,160
2017-10-29T12:23:39.005Z,135
2017-10-29T12:24:47.878Z,150
2017-10-29T12:25:57.433Z,160
2017-10-29T12:27:06.313Z,110
2017-10-29T12:28:15.197Z,90
2017-10-29T12:29:24.075Z,90
2017-10-29T12:30:33.289Z,125
2017-10-29T12:31:41.827Z,125
2017-10-29T12:32:50.705Z,150
2017-10-29T12:34:00.256Z,180
2017-10-29T12:35:09.133Z,180
2017-10-29T12:36:17.673Z,140
2017-10-29T12:37:26.887Z,125
2017-10-29T12:38:36.102Z,135
2017-10-29T12:39:44.644Z,135
2017-10-29T12:40:53.855Z,130
2017-10-29T12:42:02.734Z,120
2017-10-29T12:43:11.278Z,125
2017-10-29T12:44:19.820Z,115
2017-10-29T12:45:28.692Z,115
2017-10-29T12:46:37.229Z,120
2017-10-29T12:47:46.439Z,120
2017-10-29T12:48:54.984Z,115
2017-10-29T12:50:04.206Z,120
2017-10-29T12:51:13.421Z,120
2017-10-29T12:52:21.956Z,125
2017-10-29T12:53:30.495Z,130
2017-10-29T12:54:40.074Z,125
2017-10-29T12:55:49.284Z,120
2017-10-29T12:56:58.173Z,120
2017-10-29T12:58:06.712Z,100
2017-10-29T12:59:15.588Z,100
2017-10-29T13:00:24.466Z,105
2017-10-29T13:01:33.339Z,105
2017-10-29T13:02:41.880Z,105
2017-10-29T13:03:50.756Z,105
2017-10-29T13:04:59.298Z,105
2017-10-29T13:06:08.846Z,105
2017-10-29T13:07:17.721Z,110
2017-10-29T13:08:26.937Z,115
2017-10-29T13:09:35.817Z,110
2017-10-29T13:10:44.686Z,110
2017-10-29T13:11:53.223Z,115
2017-10-29T13:13:01.765Z,115
2017-10-29T13:14:10.308Z,115
2017-10-29T13:15:19.523Z,115
2017-10-29T13:16:28.737Z,115
2017-10-29T13:17:37.624Z,125
2017-10-29T13:18:46.502Z,135
2017-10-29T13:19:55.717Z,155
2017-10-29T13:21:05.276Z,160
2017-10-29T13:22:13.814Z,200
2017-10-29T13:23:22.353Z,165
2017-10-29T13:24:31.226Z,150
2017-10-29T13:25:39.764Z,185
2017-10-29T13:26:48.640Z,160
2017-10-29T13:27:57.514Z,140
2017-10-29T13:29:06.385Z,150
2017-10-29T13:30:15.262Z,120
2017-10-29T13:31:24.141Z,105
2017-10-29T13:32:33.010Z,105
2017-10-29T13:33:41.884Z,115
2017-10-29T13:34:50.764Z,100
2017-10-29T13:35:59.330Z,100
2017-10-29T13:37:08.182Z,100
2017-10-29T13:38:17.393Z,105
2017-10-29T13:39:25.937Z,105
2017-10-29T13:40:35.148Z,105
2017-10-29T13:41:44.027Z,105
2017-10-29T13:42:52.567Z,110
2017-10-29T13:44:01.446Z,100
2017-10-29T13:45:10.325Z,115
2017-10-29T13:46:19.539Z,115
2017-10-29T13:47:29.428Z,115
2017-10-29T13:48:37.963Z,130
2017-10-29T13:49:46.505Z,140
2017-10-29T13:50:55.377Z,130
2017-10-29T13:52:03.918Z,135
2017-10-29T13:53:12.459Z,125
2017-10-29T13:54:21.677Z,155
2017-10-29T13:55:30.215Z,155
2017-10-29T13:56:39.092Z,135
2017-10-29T13:57:47.967Z,120
2017-10-29T13:58:56.506Z,140
2017-10-29T14:00:05.048Z,140
2017-10-29T14:01:13.584Z,155
2017-10-29T14:02:22.462Z,175
2017-10-29T14:03:31.337Z,170
2017-10-29T14:04:40.551Z,120
2017-10-29T14:05:49.428Z,130
2017-10-29T14:06:57.967Z,140
2017-10-29T14:08:06.844Z,165
2017-10-29T14:09:15.725Z,150
2017-10-29T14:10:24.607Z,105
2017-10-29T14:11:33.485Z,85
2017-10-29T14:12:42.367Z,70
2017-10-29T14:13:50.908Z,95
2017-10-29T14:14:59.448Z,125
2017-10-29T14:16:08.655Z,110
2017-10-29T14:17:17.203Z,100
2017-10-29T14:18:25.738Z,110
2017-10-29T14:19:34.613Z,110
2017-10-29T14:20:43.153Z,120
2017-10-29T14:21:51.697Z,95
2017-10-29T14:23:00.573Z,90
2017-10-29T14:24:09.455Z,90
2017-10-29T14:25:18.333Z,90
2017-10-29T14:26:26.871Z,95
2017-10-29T14:27:35.411Z,95
2017-10-29T14:28:43.953Z,100
2017-10-29T14:29:52.839Z,100
2017-10-29T14:31:01.717Z,90
2017-10-29T14:32:10.593Z,100
2017-10-29T14:33:19.477Z,100
2017-10-29T14:34:28.356Z,105
2017-10-29T14:35:36.897Z,120
2017-10-29T14:36:45.438Z,85
2017-10-29T14:37:54.313Z,85
2017-10-29T14:39:02.852Z,85
2017-10-29T14:40:11.733Z,90
2017-10-29T14:41:20.605Z,95
2017-10-29T14:42:29.148Z,90
2017-10-29T14:43:38.380Z,85
2017-10-29T14:44:46.951Z,85
2017-10-29T14:45:55.826Z,90
2017-10-29T14:47:05.045Z,90
2017-10-29T14:48:14.286Z,95
2017-10-29T14:49:23.499Z,125
2017-10-29T14:50:32.719Z,115
2017-10-29T14:51:41.263Z,125
2017-10-29T14:52:49.796Z,135
2017-10-29T14:53:58.674Z,125
2017-10-29T14:55:07.888Z,100
2017-10-29T14:56:16.434Z,80
2017-10-29T14:57:25.654Z,55
2017-10-29T14:58:34.530Z,45
2017-10-29T14:59:43.413Z,45
2017-10-29T15:00:52.294Z,60
2017-10-29T15:02:00.840Z,80
2017-10-29T15:03:09.722Z,70
2017-10-29T15:04:18.262Z,65
2017-10-29T15:05:27.135Z,65
2017-10-29T15:06:36.350Z,65
2017-10-29T15:07:44.885Z,65
2017-10-29T15:08:53.426Z,60
2017-10-29T15:10:02.301Z,60
2017-10-29T15:11:11.175Z,60
2017-10-29T15:12:20.438Z,65
2017-10-29T15:13:28.985Z,70
2017-10-29T15:14:38.189Z,70
2017-10-29T15:15:47.059Z,65
2017-10-29T15:16:55.595Z,55
2017-10-29T15:18:04.133Z,60
2017-10-29T15:19:13.313Z,60
2017-10-29T15:20:22.192Z,55
2017-10-29T15:21:30.733Z,45
2017-10-29T15:22:40.285Z,45
2017-10-29T15:23:48.825Z,40
2017-10-29T15:24:58.030Z,50
2017-10-29T15:26:06.923Z,50
2017-10-29T15:27:15.806Z,50
2017-10-29T15:28:25.035Z,50
2017-10-29T15:29:33.916Z,50
2017-10-29T15:30:42.797Z,50
2017-10-29T15:31:52.016Z,45
2017-10-29T15:33:01.230Z,40
2017-10-29T15:34:10.111Z,40
2017-10-29T15:35:19.335Z,40
2017-10-29T15:36:28.892Z,35
2017-10-29T15:37:37.778Z,35
2017-10-29T15:38:46.332Z,35
2017-10-29T15:39:54.879Z,35
2017-10-29T15:41:03.423Z,35
2017-10-29T15:42:11.971Z,30
2017-10-29T15:43:20.521Z,30
2017-10-29T15:44:29.401Z,30
2017-10-29T15:45:38.288Z,30
2017-10-29T15:46:47.161Z,30
2017-10-29T15:47:55.711Z,25
2017-10-29T15:49:04.250Z,25
2017-10-29T15:50:12.791Z,25
2017-10-29T15:51:21.677Z,25
2017-10-29T15:52:30.203Z,20
2017-10-29T15:53:39.132Z,20
2017-10-29T15:54:48.008Z,20
2017-10-29T15:55:56.888Z,20
2017-10-29T15:57:05.759Z,20
2017-10-29T15:58:14.302Z,15
2017-10-29T15:59:23.183Z,15
2017-10-29T16:00:31.721Z,15
2017-10-29T16:01:41.272Z,15
2017-10-29T16:02:49.808Z,10
2017-10-29T16:03:58.680Z,10
2017-10-29T16:05:07.553Z,10
2017-10-29T16:06:16.093Z,10
2017-10-29T16:07:24.633Z,10
2017-10-29T16:08:33.510Z,10
2017-10-29T16:09:42.408Z,5
2017-10-29T16:10:50.919Z,5
2017-10-29T16:11:59.795Z,5
2017-10-29T16:13:08.673Z,5
2017-10-29T16:14:17.550Z,5
2017-10-29T16:15:26.767Z,5
2017-10-29T16:16:35.989Z,5
2017-10-29T16:17:44.865Z,0
2017-10-29T16:18:53.739Z,0
2017-10-29T16:20:02.618Z,0
2017-10-29T16:21:11.496Z,0
2017-10-29T16:22:20.033Z,0